Latest Coastal Weather Observations for Hervey Bay

IDQ60701

Issued at 5:22 pm EST Saturday 2 July 2016 (issued every 10 minutes, with the page automatically refreshed every 10 minutes)

About coastal observations | Map of coastal stations | Coastal observations for QLD | Marine services | Other Formats
Station Details ID: 040405 Name: HERVEY BAY AIRPORT Lat: -25.32 Lon: 152.88 Height: 12.98 m
Data from the previous 72 hours. | See also: Recent months at Hervey Bay
Date/Time
EST
Temp
°C
Wind Pressure Rain since
9am
mm
Weather Cloud Vis
km
Sea
Height
m
Swell
Dir  Spd
kts
Gust
kts
hPa Trend Height
m
Period
s
Dir
02/05:00pm 16.7 ESE 5 7 1023.2 - 0.0 - - 10 - - - -
02/04:30pm 18.4 SE 5 7 1022.8 - 0.0 - - 10 - - - -
02/04:00pm 19.3 SSE 7 9 1022.5 - 0.0 - - 10 - - - -
02/03:30pm 19.5 SSE 7 10 1022.0 - 0.0 - - 10 - - - -
02/03:00pm 19.7 SE 8 12 1021.7 - 0.0 - - 10 - - - -
02/02:30pm 20.3 SE 9 15 1021.7 - 0.0 - - 10 - - - -
02/02:00pm 20.1 SSE 8 11 1021.8 - 0.0 - - 10 - - - -
02/01:30pm 19.4 S 9 14 1021.9 - 0.0 - - 10 - - - -
02/01:00pm 19.5 SSE 8 13 1022.3 - 0.0 - - 10 - - - -
02/12:30pm 19.3 S 8 13 1022.5 - 0.0 - - 10 - - - -
02/12:00pm 19.2 S 7 11 1022.7 - 0.0 - - 10 - - - -
02/11:30am 18.7 S 7 11 1023.2 - 0.0 - - 10 - - - -
02/11:00am 17.9 SSW 7 11 1023.6 - 0.0 - - 10 - - - -
02/10:30am 17.0 SSW 8 12 1023.8 - 0.0 - - 10 - - - -
02/10:00am 16.1 SW 8 11 1024.1 - 0.0 - - 10 - - - -
02/09:30am 14.9 SSW 7 10 1024.4 - 0.0 - - 10 - - - -
02/09:00am 13.2 SSW 9 14 1024.3 - 0.2 - - 10 - - - -
02/08:30am 12.1 SW 7 9 1024.2 - 0.2 - - 10 - - - -
02/08:00am 11.1 SSW 7 10 1024.0 - 0.2 - - 10 - - - -
02/07:30am 9.7 SSW 5 7 1023.7 - 0.2 - - 10 - - - -
02/07:00am 8.3 SSW 5 6 1023.2 - 0.2 - - 10 - - - -
02/06:30am 8.7 SW 3 5 1022.7 - 0.2 - - 10 - - - -
02/06:00am 9.6 SW 5 8 1022.3 - 0.2 - - 10 - - - -
02/05:30am 10.1 SW 7 11 1021.8 - 0.2 - - 10 - - - -
02/05:00am 10.4 SSW 7 11 1021.6 - 0.2 - - 10 - - - -
02/04:30am 10.6 SSW 6 9 1021.4 - 0.2 - - 10 - - - -
02/04:00am 11.5 SW 9 14 1021.2 - 0.2 - - 10 - - - -
02/03:30am 12.0 SW 10 13 1021.5 - 0.2 - - 10 - - - -
02/03:00am 11.6 SW 8 11 1021.5 - 0.2 - - 10 - - - -
02/02:30am 12.2 SW 9 12 1021.3 - 0.2 - - 10 - - - -
02/02:00am 10.9 SW 7 11 1021.4 - 0.2 - - 10 - - - -
02/01:30am 9.3 SW 6 8 1021.7 - 0.2 - - 10 - - - -
02/01:00am 8.5 SW 5 7 1021.8 - 0.2 - - 10 - - - -
02/12:30am 7.8 SW 4 5 1022.1 - 0.2 - - 10 - - - -
02/12:00am 8.5 SW 4 5 1021.9 - 0.2 - - 10 - - - -
 
Date/Time
EST
Temp
°C
Wind Pressure Rain since
9am
mm
Weather Cloud Vis
km
Sea
Height
m
Swell
Dir  Spd
kts
Gust
kts
hPa Trend Height
m
Period
s
Dir
01/11:30pm 9.5 SW 5 5 1021.9 - 0.2 - - 10 - - - -
01/11:00pm 9.0 SW 5 6 1021.6 - 0.2 - - 10 - - - -
01/10:30pm 8.9 WSW 5 7 1021.7 - 0.2 - - 10 - - - -
01/10:00pm 8.6 SW 5 6 1021.9 - 0.2 - - 10 - - - -
01/09:30pm 8.8 WSW 3 4 1021.7 - 0.2 - - 10 - - - -
01/09:00pm 9.2 SW 5 6 1021.4 - 0.2 - - 10 - - - -
01/08:30pm 9.7 SW 4 4 1021.4 - 0.2 - - 10 - - - -
01/08:00pm 10.2 WSW 3 4 1021.2 - 0.2 - - 10 - - - -
01/07:30pm 10.6 SW 4 5 1020.9 - 0.2 - - 10 - - - -
01/07:00pm 11.0 SW 4 5 1020.4 - 0.2 - - 10 - - - -
01/06:30pm 12.1 CALM 0 0 1020.1 - 0.2 - - 10 - - - -
01/06:00pm 13.6 CALM 0 3 1019.5 - 0.2 - - 10 - - - -
01/05:30pm 15.5 CALM 0 0 1019.1 - 0.2 - - 10 - - - -
01/05:00pm 19.0 E 3 4 1018.6 - 0.2 - - 10 - - - -
01/04:30pm 22.2 SW 4 6 1018.3 - 0.2 - - 10 - - - -
01/04:00pm 22.8 SW 6 8 1018.0 - 0.2 - - 10 - - - -
01/03:30pm 23.4 SW 7 11 1017.7 - 0.2 - - 10 - - - -
01/03:00pm 23.6 SW 7 11 1017.5 - 0.2 - - 10 - - - -
01/02:30pm 23.8 WSW 7 9 1017.7 - 0.2 - - 10 - - - -
01/02:00pm 23.8 SSW 6 14 1017.7 - 0.2 - - 10 - - - -
01/01:30pm 22.0 W 4 8 1017.9 - 0.2 - - 10 - - - -
01/01:00pm 22.6 W 7 11 1018.1 - 0.2 - - 10 - - - -
01/12:30pm 23.1 WSW 6 11 1018.4 - 0.2 - - 10 - - - -
01/12:00pm 22.7 WSW 7 10 1018.9 - 0.2 Recent precip. - 10 - - - -
01/11:30am 20.9 E 3 6 1019.5 - 0.2 - - 10 - - - -
01/11:00am 21.2 ENE 4 6 1020.0 - 0.0 - - 10 - - - -
01/10:30am 21.6 WNW 6 9 1020.5 - 0.0 - - 10 - - - -
01/10:00am 19.4 WNW 6 9 1020.9 - 0.0 - - 10 - - - -
01/09:30am 17.9 WSW 5 7 1021.2 - 0.0 - - 10 - - - -
01/09:00am 16.3 CALM 0 4 1021.3 - 0.0 - - 10 - - - -
01/08:30am 15.3 CALM 0 0 1021.4 - 0.0 - - 10 - - - -
01/08:28am 15.2 CALM 0 0 1021.4 - 0.0 - - 10 - - - -
01/08:00am 14.1 CALM 0 0 1021.1 - 0.0 - - 0.9 - - - -
01/07:30am 13.3 CALM 0 0 1020.9 - 0.0 - - 0.3 - - - -
01/07:00am 12.4 CALM 0 0 1020.6 - 0.0 - - 0.7 - - - -
01/06:30am 12.5 CALM 0 0 1020.2 - 0.0 - - 0.1 - - - -
01/06:00am 12.6 CALM 0 0 1020.0 - 0.0 - - 2 - - - -
01/05:30am 13.0 SE 3 4 1019.8 - 0.0 - - 0.1 - - - -
01/05:00am 13.3 SW 3 5 1019.7 - 0.0 - - 0.1 - - - -
01/04:30am 12.8 SW 4 6 1019.5 - 0.0 - - 0.5 - - - -
01/04:00am 11.9 SSW 5 7 1019.3 - 0.0 - - 0.5 - - - -
01/03:35am 10.8 SSW 6 7 1019.3 - 0.0 - - 4 - - - -
01/03:30am 10.2 SSW 5 7 1019.2 - 0.0 - - 10 - - - -
01/03:00am 9.3 SSE 1 4 1019.1 - 0.0 - - 10 - - - -
01/02:58am 9.3 CALM 0 0 1019.0 - 0.0 - - 10 - - - -
01/02:30am 9.4 SE 1 3 1019.0 - 0.0 - - 5 - - - -
01/02:27am 9.5 SE 1 3 1019.0 - 0.0 - - 5 - - - -
01/02:19am 9.6 CALM 0 0 1019.0 - 0.0 - - 10 - - - -
01/02:00am 9.7 CALM 0 0 1019.2 - 0.0 - - 2 - - - -
01/01:39am 9.7 CALM 0 0 1019.4 - 0.0 - - 5 - - - -
01/01:31am 9.6 CALM 0 0 1019.5 - 0.0 - - 10 - - - -
01/01:30am 9.7 CALM 0 0 1019.5 - 0.0 - - 10 - - - -
01/01:21am 9.9 CALM 0 0 1019.6 - 0.0 - - 5 - - - -
01/01:00am 9.8 CALM 0 0 1019.8 - 0.0 - - 10 - - - -
01/12:49am 9.9 CALM 0 0 1019.8 - 0.0 - - 10 - - - -
01/12:30am 10.0 CALM 0 0 1020.1 - 0.0 - - 2 - - - -
01/12:00am 10.0 CALM 0 0 1020.2 - 0.0 - - 2 - - - -
 
Date/Time
EST
Temp
°C
Wind Pressure Rain since
9am
mm
Weather Cloud Vis
km
Sea
Height
m
Swell
Dir  Spd
kts
Gust
kts
hPa Trend Height
m
Period
s
Dir
30/11:53pm 10.0 CALM 0 0 1020.3 - 0.0 - - 5 - - - -
30/11:30pm 10.1 CALM 0 0 1020.5 - 0.0 - - 10 - - - -
30/11:00pm 10.3 CALM 0 0 1020.8 - 0.0 - - 10 - - - -
30/10:30pm 10.6 CALM 0 0 1021.0 - 0.0 - - 10 - - - -
30/10:00pm 11.0 CALM 0 0 1021.0 - 0.0 - - 10 - - - -
30/09:30pm 11.1 CALM 0 0 1021.1 - 0.0 - - 10 - - - -
30/09:00pm 11.5 CALM 0 0 1021.1 - 0.0 - - 10 - - - -
30/08:30pm 11.9 CALM 0 0 1021.2 - 0.0 - - 10 - - - -
30/08:00pm 12.5 CALM 0 0 1021.2 - 0.0 - - 10 - - - -
30/07:30pm 13.1 CALM 0 0 1021.0 - 0.0 - - 10 - - - -
30/07:00pm 13.9 E 1 3 1020.9 - 0.0 - - 10 - - - -
30/06:30pm 16.1 E 4 5 1020.6 - 0.0 - - 10 - - - -
30/06:00pm 16.8 E 5 6 1020.5 - 0.0 - - 10 - - - -
30/05:30pm 16.8 ESE 5 7 1020.2 - 0.0 - - 10 - - - -
30/05:00pm 19.0 E 7 8 1020.1 - 0.0 - - 10 - - - -
30/04:30pm 20.3 E 7 8 1020.1 - 0.0 - - 10 - - - -
30/04:00pm 21.4 ESE 7 9 1020.0 - 0.0 - - 10 - - - -
30/03:30pm 21.5 ESE 8 10 1020.0 - 0.0 - - 10 - - - -
30/03:00pm 21.0 ESE 7 9 1020.1 - 0.0 - - 10 - - - -
30/02:30pm 22.1 E 7 10 1020.0 - 0.0 - - 10 - - - -
30/02:00pm 21.2 SE 7 12 1020.2 - 0.0 - - 10 - - - -
30/01:30pm 22.7 ESE 7 11 1020.5 - 0.0 - - 10 - - - -
30/01:00pm 22.6 ESE 6 11 1021.0 - 0.0 - - 10 - - - -
30/12:30pm 22.4 SE 6 13 1021.3 - 0.0 - - 10 - - - -
30/12:00pm 21.8 SSE 6 9 1021.8 - 0.0 - - 10 - - - -
30/11:30am 21.2 SSW 6 9 1022.2 - 0.0 - - 10 - - - -
30/11:00am 20.7 SSW 8 11 1022.6 - 0.0 - - 10 - - - -
30/10:30am 19.6 S 7 9 1023.0 - 0.0 - - 10 - - - -
30/10:00am 18.5 SSW 7 11 1023.3 - 0.0 - - 10 - - - -
30/09:30am 16.9 SSW 8 10 1023.5 - 0.0 - - 10 - - - -
30/09:00am 15.2 SSW 7 10 1023.5 - 0.0 - - 10 - - - -
30/08:30am 13.3 SSW 7 8 1023.4 - 0.0 - - 10 - - - -
30/08:00am 12.1 SSW 6 9 1023.3 - 0.0 - - 10 - - - -
30/07:30am 11.3 SW 5 7 1023.2 - 0.0 - - 10 - - - -
30/07:00am 10.2 SSW 6 8 1022.7 - 0.0 - - 10 - - - -
30/06:30am 10.0 SSW 6 8 1022.7 - 0.0 - - 10 - - - -
30/06:00am 10.3 SSW 7 9 1022.6 - 0.0 - - 10 - - - -
30/05:30am 10.7 SSW 7 9 1022.3 - 0.0 - - 10 - - - -
30/05:00am 10.7 SW 7 9 1022.2 - 0.0 - - 10 - - - -
30/04:30am 10.7 SW 7 9 1022.1 - 0.0 - - 10 - - - -
30/04:00am 10.8 SW 6 9 1022.1 - 0.0 - - 10 - - - -
30/03:30am 11.0 SW 7 8 1022.1 - 0.0 - - 10 - - - -
30/03:00am 10.9 SW 6 7 1022.3 - 0.0 - - 10 - - - -
30/02:30am 10.8 SW 5 6 1022.6 - 0.0 - - 10 - - - -
30/02:00am 10.8 SW 5 7 1022.9 - 0.0 - - 10 - - - -
30/01:30am 10.8 SW 5 7 1023.4 - 0.0 - - 10 - - - -
30/01:00am 10.8 SW 4 5 1023.6 - 0.0 - - 10 - - - -
30/12:30am 11.1 SW 5 7 1023.7 - 0.0 - - 10 - - - -
30/12:00am 11.3 SSW 6 7 1023.9 - 0.0 - - 10 - - - -
 
Date/Time
EST
Temp
°C
Wind Pressure Rain since
9am
mm
Weather Cloud Vis
km
Sea
Height
m
Swell
Dir  Spd
kts
Gust
kts
hPa Trend Height
m
Period
s
Dir
29/11:30pm 10.8 SSW 4 5 1024.3 - 0.0 - - 10 - - - -
29/11:00pm 10.5 SSW 4 5 1024.4 - 0.0 - - 10 - - - -
29/10:30pm 10.6 SW 5 6 1024.7 - 0.0 - - 10 - - - -
29/10:00pm 9.7 SW 3 4 1024.8 - 0.0 - - 10 - - - -
29/09:30pm 10.7 SSW 4 5 1025.0 - 0.0 - - 10 - - - -
29/09:00pm 12.5 S 5 6 1024.9 - 0.0 - - 10 - - - -
29/08:30pm 13.8 S 6 8 1024.8 - 0.0 - - 10 - - - -
29/08:00pm 10.8 S 4 6 1024.9 - 0.0 - - 10 - - - -
29/07:30pm 11.5 S 4 5 1025.1 - 0.0 - - 10 - - - -
29/07:00pm 12.8 SSE 3 5 1025.0 - 0.0 - - 10 - - - -
29/06:30pm 15.2 SSE 4 6 1024.7 - 0.0 - - 10 - - - -
29/06:00pm 16.0 SSE 5 8 1024.2 - 0.0 - - 10 - - - -
29/05:30pm 16.7 SE 7 9 1023.9 - 0.0 - - 10 - - - -

Other Formats:

Comma delimited format used in spreadsheet applications
http://www.bom.gov.au/fwo/IDQ60701/IDQ60701.95565.axf

JavaScript Object Notation format (JSON) in row-major order
http://www.bom.gov.au/fwo/IDQ60701/IDQ60701.95565.json